createdAt,value
2024-01-12T00:00:29.305Z,21.43
2024-01-12T00:01:29.889Z,21.45
2024-01-12T00:02:30.528Z,21.37
2024-01-12T00:03:31.118Z,21.35
2024-01-12T00:04:31.792Z,21.32
2024-01-12T00:05:32.398Z,21.32
2024-01-12T00:06:33.230Z,21.30
2024-01-12T00:07:33.928Z,21.25
2024-01-12T00:08:34.627Z,21.22
2024-01-12T00:09:35.312Z,21.32
2024-01-12T00:10:35.905Z,21.15
2024-01-12T00:11:36.616Z,21.21
2024-01-12T00:12:37.317Z,21.18
2024-01-12T00:13:37.898Z,21.21
2024-01-12T00:14:38.500Z,21.22
2024-01-12T00:15:39.074Z,21.14
2024-01-12T00:16:39.667Z,21.20
2024-01-12T00:17:40.299Z,21.14
2024-01-12T00:18:40.938Z,21.18
2024-01-12T00:19:41.520Z,21.11
2024-01-12T00:20:42.123Z,21.12
2024-01-12T00:21:42.715Z,21.09
2024-01-12T00:22:43.298Z,21.11
2024-01-12T00:23:43.963Z,21.09
2024-01-12T00:24:44.595Z,21.02
2024-01-12T00:25:45.376Z,21.03
2024-01-12T00:26:45.999Z,21.06
2024-01-12T00:27:46.576Z,21.03
2024-01-12T00:28:47.170Z,21.02
2024-01-12T00:29:47.785Z,20.97
2024-01-12T00:30:48.622Z,21.03
2024-01-12T00:31:49.100Z,21.00
2024-01-12T00:32:49.764Z,21.02
2024-01-12T00:33:50.539Z,20.97
2024-01-12T00:34:51.256Z,20.96
2024-01-12T00:35:51.980Z,20.95
2024-01-12T00:36:52.641Z,20.97
2024-01-12T00:37:53.224Z,20.99
2024-01-12T00:38:53.848Z,20.95
2024-01-12T00:39:54.533Z,20.87
2024-01-12T00:40:55.129Z,20.96
2024-01-12T00:41:55.772Z,20.92
2024-01-12T00:42:56.362Z,20.85
2024-01-12T00:43:57.239Z,20.96
2024-01-12T00:44:58.007Z,20.93
2024-01-12T00:45:58.753Z,20.88
2024-01-12T00:46:59.449Z,20.88
2024-01-12T00:48:00.278Z,20.80
2024-01-12T00:49:00.998Z,20.82
2024-01-12T00:50:01.662Z,20.70
2024-01-12T00:51:02.397Z,20.75
2024-01-12T00:52:03.008Z,20.74
2024-01-12T00:53:03.605Z,20.78
2024-01-12T00:54:04.744Z,20.82
2024-01-12T00:55:05.376Z,20.84
2024-01-12T00:56:05.953Z,20.82
2024-01-12T00:57:06.545Z,20.75
2024-01-12T00:58:07.131Z,20.75
2024-01-12T00:59:07.727Z,20.72
2024-01-12T01:00:08.313Z,20.70
2024-01-12T01:01:08.943Z,20.70
2024-01-12T01:02:09.636Z,20.65
2024-01-12T01:03:10.231Z,20.60
2024-01-12T01:04:10.899Z,20.65
2024-01-12T01:05:11.545Z,20.62
2024-01-12T01:06:12.257Z,20.66
2024-01-12T01:07:12.851Z,20.66
2024-01-12T01:08:13.527Z,20.65
2024-01-12T01:09:14.155Z,20.66
2024-01-12T01:10:14.911Z,20.65
2024-01-12T01:11:15.529Z,20.65
2024-01-12T01:12:16.103Z,20.59
2024-01-12T01:13:16.693Z,20.65
2024-01-12T01:14:17.295Z,20.60
2024-01-12T01:15:17.891Z,20.62
2024-01-12T01:16:18.472Z,20.58
2024-01-12T01:17:19.143Z,20.62
2024-01-12T01:18:20.031Z,20.52
2024-01-12T01:19:20.722Z,20.44
2024-01-12T01:20:21.336Z,20.59
2024-01-12T01:21:21.911Z,20.47
2024-01-12T01:22:22.508Z,20.48
2024-01-12T01:23:23.195Z,20.47
2024-01-12T01:24:23.819Z,20.50
2024-01-12T01:25:24.441Z,20.43
2024-01-12T01:26:25.075Z,20.51
2024-01-12T01:27:25.676Z,20.44
2024-01-12T01:28:26.252Z,20.47
2024-01-12T01:29:26.927Z,20.44
2024-01-12T01:30:27.625Z,20.51
2024-01-12T01:31:28.216Z,20.47
2024-01-12T01:32:28.959Z,20.37
2024-01-12T01:33:29.531Z,20.40
2024-01-12T01:34:30.378Z,20.43
2024-01-12T01:35:31.061Z,20.41
2024-01-12T01:36:31.660Z,20.40
2024-01-12T01:37:32.249Z,20.31
2024-01-12T01:38:32.877Z,20.32
2024-01-12T01:39:33.508Z,20.29
2024-01-12T01:40:34.087Z,20.32
2024-01-12T01:41:34.987Z,20.43
2024-01-12T01:42:35.648Z,20.43
2024-01-12T01:43:36.245Z,20.39
2024-01-12T01:44:37.019Z,20.31
2024-01-12T01:45:37.745Z,20.29
2024-01-12T01:46:38.376Z,20.29
2024-01-12T01:47:39.053Z,20.31
2024-01-12T01:48:39.752Z,20.31
2024-01-12T01:49:40.421Z,20.36
2024-01-12T01:50:41.078Z,20.31
2024-01-12T01:51:41.686Z,20.31
2024-01-12T01:52:42.274Z,20.26
2024-01-12T01:53:42.965Z,20.25
2024-01-12T01:54:43.556Z,20.26
2024-01-12T01:55:44.138Z,20.26
2024-01-12T01:56:44.880Z,20.19
2024-01-12T01:57:45.515Z,20.18
2024-01-12T01:58:46.089Z,20.29
2024-01-12T01:59:46.733Z,20.21
2024-01-12T02:00:47.331Z,20.11
2024-01-12T02:01:47.925Z,20.19
2024-01-12T02:02:48.716Z,20.10
2024-01-12T02:03:49.570Z,20.21
2024-01-12T02:04:50.206Z,20.22
2024-01-12T02:05:51.053Z,20.19
2024-01-12T02:06:51.814Z,20.19
2024-01-12T02:07:52.465Z,20.18
2024-01-12T02:08:53.136Z,20.21
2024-01-12T02:09:53.766Z,20.14
2024-01-12T02:10:54.452Z,20.22
2024-01-12T02:11:55.187Z,20.18
2024-01-12T02:12:55.870Z,20.21
2024-01-12T02:13:56.465Z,20.21
2024-01-12T02:14:57.096Z,20.16
2024-01-12T02:15:57.679Z,20.18
2024-01-12T02:16:58.258Z,20.21
2024-01-12T02:17:58.964Z,20.09
2024-01-12T02:18:59.661Z,20.07
2024-01-12T02:20:00.434Z,20.06
2024-01-12T02:21:00.983Z,20.04
2024-01-12T02:22:01.612Z,19.99
2024-01-12T02:23:02.196Z,19.99
2024-01-12T02:24:02.861Z,20.00
2024-01-12T02:25:03.428Z,20.10
2024-01-12T02:26:04.064Z,20.07
2024-01-12T02:27:04.659Z,20.03
2024-01-12T02:28:05.294Z,20.02
2024-01-12T02:29:06.146Z,20.04
2024-01-12T02:30:06.831Z,20.04
2024-01-12T02:31:07.702Z,20.07
2024-01-12T02:32:08.297Z,20.00
2024-01-12T02:33:09.023Z,20.07
2024-01-12T02:34:09.802Z,20.02
2024-01-12T02:35:10.414Z,20.03
2024-01-12T02:36:11.016Z,20.00
2024-01-12T02:37:11.734Z,19.96
2024-01-12T02:38:12.358Z,20.02
2024-01-12T02:39:12.963Z,19.92
2024-01-12T02:40:13.637Z,19.95
2024-01-12T02:41:14.271Z,19.96
2024-01-12T02:42:14.949Z,20.00
2024-01-12T02:43:15.521Z,19.92
2024-01-12T02:44:16.150Z,19.95
2024-01-12T02:45:16.739Z,19.95
2024-01-12T02:46:17.437Z,19.89
2024-01-12T02:47:18.045Z,19.95
2024-01-12T02:48:18.756Z,19.94
2024-01-12T02:49:19.265Z,19.92
2024-01-12T02:50:19.882Z,19.92
2024-01-12T02:51:20.497Z,19.95
2024-01-12T02:52:21.240Z,19.91
2024-01-12T02:53:21.999Z,19.96
2024-01-12T02:54:22.596Z,19.94
2024-01-12T02:55:23.523Z,19.91
2024-01-12T02:56:24.124Z,19.92
2024-01-12T02:57:24.924Z,19.88
2024-01-12T02:58:25.919Z,19.92
2024-01-12T02:59:26.527Z,19.88
2024-01-12T03:00:27.192Z,19.88
2024-01-12T03:01:27.767Z,19.85
2024-01-12T03:02:28.390Z,19.92
2024-01-12T03:03:29.238Z,19.91
2024-01-12T03:04:29.910Z,19.79
2024-01-12T03:05:30.593Z,19.84
2024-01-12T03:06:31.254Z,19.94
2024-01-12T03:07:31.874Z,19.89
2024-01-12T03:08:32.560Z,19.91
2024-01-12T03:09:33.159Z,19.89
2024-01-12T03:10:33.894Z,19.92
2024-01-12T03:11:34.536Z,19.86
2024-01-12T03:12:35.119Z,19.85
2024-01-12T03:13:35.715Z,19.91
2024-01-12T03:14:36.345Z,19.86
2024-01-12T03:15:36.954Z,19.89
2024-01-12T03:16:37.569Z,19.85
2024-01-12T03:17:38.282Z,19.88
2024-01-12T03:18:39.050Z,19.84
2024-01-12T03:19:39.719Z,19.81
2024-01-12T03:20:40.345Z,19.88
2024-01-12T03:21:40.976Z,19.88
2024-01-12T03:22:41.571Z,19.82
2024-01-12T03:23:42.204Z,19.85
2024-01-12T03:24:42.809Z,19.85
2024-01-12T03:25:43.417Z,19.79
2024-01-12T03:26:44.038Z,19.79
2024-01-12T03:27:44.702Z,19.81
2024-01-12T03:28:45.287Z,19.73
2024-01-12T03:29:45.998Z,19.77
2024-01-12T03:30:46.631Z,19.81
2024-01-12T03:31:47.241Z,19.84
2024-01-12T03:32:47.933Z,19.81
2024-01-12T03:33:48.783Z,19.84
2024-01-12T03:34:49.666Z,19.82
2024-01-12T03:35:50.395Z,19.77
2024-01-12T03:36:50.985Z,19.71
2024-01-12T03:37:51.604Z,19.76
2024-01-12T03:38:52.292Z,19.76
2024-01-12T03:39:52.885Z,19.74
2024-01-12T03:40:53.529Z,19.74
2024-01-12T03:41:54.230Z,19.77
2024-01-12T03:42:54.855Z,19.74
2024-01-12T03:43:56.277Z,19.73
2024-01-12T03:44:57.064Z,19.66
2024-01-12T03:45:57.668Z,19.73
2024-01-12T03:46:58.250Z,19.71
2024-01-12T03:47:59.066Z,19.67
2024-01-12T03:48:59.875Z,19.69
2024-01-12T03:50:00.528Z,19.67
2024-01-12T03:51:01.191Z,19.73
2024-01-12T03:52:14.626Z,19.64
2024-01-12T03:53:03.341Z,19.71
2024-01-12T03:54:04.053Z,19.79
2024-01-12T03:55:04.673Z,19.69
2024-01-12T03:56:05.301Z,19.66
2024-01-12T03:57:05.905Z,19.69
2024-01-12T03:58:06.497Z,19.67
2024-01-12T03:59:07.089Z,19.63
2024-01-12T04:00:07.817Z,19.69
2024-01-12T04:01:08.563Z,19.64
2024-01-12T04:02:09.553Z,19.69
2024-01-12T04:03:10.218Z,19.69
2024-01-12T04:04:10.882Z,19.58
2024-01-12T04:05:11.460Z,19.67
2024-01-12T04:06:12.363Z,19.63
2024-01-12T04:07:13.082Z,19.64
2024-01-12T04:08:13.859Z,19.63
2024-01-12T04:09:14.468Z,19.64
2024-01-12T04:10:15.107Z,19.71
2024-01-12T04:11:15.749Z,19.66
2024-01-12T04:12:16.397Z,19.59
2024-01-12T04:13:16.993Z,19.64
2024-01-12T04:14:17.666Z,19.58
2024-01-12T04:15:18.338Z,19.64
2024-01-12T04:16:18.959Z,19.54
2024-01-12T04:17:19.788Z,19.63
2024-01-12T04:18:20.589Z,19.64
2024-01-12T04:19:21.325Z,19.55
2024-01-12T04:20:21.987Z,19.52
2024-01-12T04:21:22.639Z,19.58
2024-01-12T04:22:23.220Z,19.58
2024-01-12T04:23:23.842Z,19.59
2024-01-12T04:24:24.431Z,19.59
2024-01-12T04:25:25.008Z,19.56
2024-01-12T04:26:25.663Z,19.58
2024-01-12T04:27:26.365Z,19.54
2024-01-12T04:28:26.991Z,19.62
2024-01-12T04:29:27.617Z,19.45
2024-01-12T04:30:28.222Z,19.54
2024-01-12T04:31:28.815Z,19.49
2024-01-12T04:32:29.503Z,19.51
2024-01-12T04:33:30.302Z,19.44
2024-01-12T04:34:30.993Z,19.45
2024-01-12T04:35:31.612Z,19.49
2024-01-12T04:36:32.199Z,19.44
2024-01-12T04:37:32.790Z,19.45
2024-01-12T04:38:33.485Z,19.52
2024-01-12T04:39:34.061Z,19.45
2024-01-12T04:40:34.701Z,19.52
2024-01-12T04:41:35.320Z,19.49
2024-01-12T04:42:35.894Z,19.49
2024-01-12T04:43:36.485Z,19.48
2024-01-12T04:44:37.145Z,19.39
2024-01-12T04:45:38.496Z,19.44
2024-01-12T04:46:39.323Z,19.48
2024-01-12T04:47:39.983Z,19.48
2024-01-12T04:48:40.807Z,19.49
2024-01-12T04:49:41.510Z,19.47
2024-01-12T04:50:42.112Z,19.44
2024-01-12T04:51:42.709Z,19.45
2024-01-12T04:52:43.308Z,19.45
2024-01-12T04:53:43.899Z,19.41
2024-01-12T04:54:44.485Z,19.45
2024-01-12T04:55:45.072Z,19.47
2024-01-12T04:56:45.747Z,19.44
2024-01-12T04:57:46.347Z,19.47
2024-01-12T04:58:46.940Z,19.45
2024-01-12T04:59:47.570Z,19.48
2024-01-12T05:00:48.204Z,19.47
2024-01-12T05:01:48.780Z,19.49
2024-01-12T05:02:49.691Z,19.45
2024-01-12T05:03:50.391Z,19.45
2024-01-12T05:04:51.009Z,19.48
2024-01-12T05:05:51.803Z,19.47
2024-01-12T05:06:52.536Z,19.41
2024-01-12T05:07:53.149Z,19.41
2024-01-12T05:08:53.792Z,19.45
2024-01-12T05:09:54.519Z,19.45
2024-01-12T05:10:55.094Z,19.40
2024-01-12T05:11:55.712Z,19.41
2024-01-12T05:12:56.301Z,19.47
2024-01-12T05:13:56.882Z,19.37
2024-01-12T05:14:57.538Z,19.40
2024-01-12T05:15:58.124Z,19.47
2024-01-12T05:16:58.816Z,19.31
2024-01-12T05:17:59.619Z,19.34
2024-01-12T05:19:00.698Z,19.45
2024-01-12T05:20:01.432Z,19.37
2024-01-12T05:21:02.193Z,19.44
2024-01-12T05:22:02.844Z,19.34
2024-01-12T05:23:04.852Z,19.44
2024-01-12T05:24:05.072Z,19.26
2024-01-12T05:25:05.684Z,19.41
2024-01-12T05:26:06.329Z,19.41
2024-01-12T05:27:06.997Z,19.41
2024-01-12T05:28:07.595Z,19.37
2024-01-12T05:29:08.501Z,19.36
2024-01-12T05:30:09.209Z,19.26
2024-01-12T05:31:10.004Z,19.31
2024-01-12T05:32:10.551Z,19.41
2024-01-12T05:33:11.233Z,19.26
2024-01-12T05:34:11.963Z,19.36
2024-01-12T05:35:13.083Z,19.31
2024-01-12T05:36:14.162Z,19.36
2024-01-12T05:37:14.762Z,19.30
2024-01-12T05:38:15.411Z,19.30
2024-01-12T05:39:16.040Z,19.22
2024-01-12T05:40:16.627Z,19.26
2024-01-12T05:41:17.269Z,19.27
2024-01-12T05:42:17.871Z,19.34
2024-01-12T05:43:18.494Z,19.26
2024-01-12T05:44:19.195Z,19.27
2024-01-12T05:45:19.765Z,19.22
2024-01-12T05:46:20.384Z,19.27
2024-01-12T05:47:21.049Z,19.30
2024-01-12T05:48:21.722Z,19.31
2024-01-12T05:49:22.465Z,19.29
2024-01-12T05:50:23.072Z,19.30
2024-01-12T05:51:23.681Z,19.24
2024-01-12T05:52:24.262Z,19.29
2024-01-12T05:53:24.884Z,19.31
2024-01-12T05:54:25.451Z,19.30
2024-01-12T05:55:26.048Z,19.27
2024-01-12T05:56:26.667Z,19.30
2024-01-12T05:57:27.251Z,19.21
2024-01-12T05:58:27.840Z,19.18
2024-01-12T05:59:28.455Z,19.24
2024-01-12T06:00:29.073Z,19.29
2024-01-12T06:01:29.691Z,19.26
2024-01-12T06:02:30.380Z,19.21
2024-01-12T06:03:31.107Z,19.29
2024-01-12T06:04:31.681Z,19.19
2024-01-12T06:05:32.431Z,19.21
2024-01-12T06:06:33.206Z,19.19
2024-01-12T06:07:33.810Z,19.29
2024-01-12T06:08:34.417Z,19.21
2024-01-12T06:09:35.038Z,19.27
2024-01-12T06:10:35.641Z,19.24
2024-01-12T06:11:36.228Z,19.21
2024-01-12T06:12:36.804Z,19.24
2024-01-12T06:13:37.399Z,19.21
2024-01-12T06:14:38.011Z,19.19
2024-01-12T06:15:38.624Z,19.18
2024-01-12T06:16:39.220Z,19.19
2024-01-12T06:17:39.954Z,19.21
2024-01-12T06:18:40.848Z,19.16
2024-01-12T06:19:41.670Z,19.21
2024-01-12T06:20:42.270Z,19.14
2024-01-12T06:21:42.948Z,19.21
2024-01-12T06:22:43.844Z,19.24
2024-01-12T06:23:44.425Z,19.26
2024-01-12T06:24:45.007Z,19.26
2024-01-12T06:25:45.711Z,19.18
2024-01-12T06:26:46.474Z,19.19
2024-01-12T06:27:47.180Z,19.26
2024-01-12T06:28:47.759Z,19.22
2024-01-12T06:29:48.408Z,19.16
2024-01-12T06:30:49.377Z,19.19
2024-01-12T06:31:50.021Z,19.19
2024-01-12T06:32:50.668Z,19.18
2024-01-12T06:33:51.403Z,19.29
2024-01-12T06:34:52.034Z,19.18
2024-01-12T06:35:52.697Z,19.26
2024-01-12T06:36:53.590Z,19.15
2024-01-12T06:37:54.196Z,19.14
2024-01-12T06:38:56.611Z,19.24
2024-01-12T06:39:56.467Z,19.18
2024-01-12T06:40:57.128Z,19.12
2024-01-12T06:41:57.865Z,19.14
2024-01-12T06:42:58.485Z,19.11
2024-01-12T06:43:59.158Z,19.15
2024-01-12T06:44:59.884Z,19.15
2024-01-12T06:46:00.495Z,19.11
2024-01-12T06:47:01.068Z,19.18
2024-01-12T06:48:01.856Z,19.14
2024-01-12T06:49:02.681Z,19.16
2024-01-12T06:50:03.272Z,19.15
2024-01-12T06:51:04.059Z,19.11
2024-01-12T06:52:04.704Z,19.15
2024-01-12T06:53:05.282Z,19.18
2024-01-12T06:54:05.974Z,19.21
2024-01-12T06:55:06.609Z,19.15
2024-01-12T06:56:07.278Z,19.12
2024-01-12T06:57:08.389Z,19.12
2024-01-12T06:58:08.980Z,19.15
2024-01-12T06:59:09.572Z,19.15
2024-01-12T07:00:10.258Z,19.14
2024-01-12T07:01:10.880Z,19.16
2024-01-12T07:02:12.851Z,19.14
2024-01-12T07:03:13.248Z,19.15
2024-01-12T07:04:13.944Z,19.08
2024-01-12T07:05:14.559Z,19.16
2024-01-12T07:06:15.240Z,19.12
2024-01-12T07:07:16.009Z,19.11
2024-01-12T07:08:16.676Z,19.11
2024-01-12T07:09:17.324Z,19.08
2024-01-12T07:10:17.912Z,19.08
2024-01-12T07:11:18.531Z,19.09
2024-01-12T07:12:19.133Z,19.04
2024-01-12T07:13:19.738Z,19.08
2024-01-12T07:14:20.341Z,19.08
2024-01-12T07:15:20.919Z,19.07
2024-01-12T07:16:21.513Z,19.04
2024-01-12T07:17:22.242Z,19.15
2024-01-12T07:18:23.064Z,19.09
2024-01-12T07:19:23.809Z,19.04
2024-01-12T07:20:24.476Z,19.14
2024-01-12T07:21:25.060Z,19.08
2024-01-12T07:22:25.705Z,19.09
2024-01-12T07:23:26.358Z,19.08
2024-01-12T07:24:26.999Z,19.00
2024-01-12T07:25:27.583Z,19.07
2024-01-12T07:26:28.320Z,19.14
2024-01-12T07:27:28.923Z,19.11
2024-01-12T07:28:29.517Z,19.11
2024-01-12T07:29:30.127Z,19.15
2024-01-12T07:30:30.761Z,19.07
2024-01-12T07:31:31.356Z,19.08
2024-01-12T07:32:32.042Z,19.02
2024-01-12T07:33:32.771Z,19.08
2024-01-12T07:34:34.026Z,19.11
2024-01-12T07:35:34.648Z,19.11
2024-01-12T07:36:35.282Z,19.12
2024-01-12T07:37:35.869Z,19.11
2024-01-12T07:38:36.472Z,19.08
2024-01-12T07:39:37.154Z,19.04
2024-01-12T07:40:38.837Z,19.04
2024-01-12T07:41:39.376Z,19.14
2024-01-12T07:42:39.994Z,19.09
2024-01-12T07:43:40.884Z,18.96
2024-01-12T07:44:41.491Z,19.04
2024-01-12T07:45:42.077Z,19.04
2024-01-12T07:46:42.720Z,18.99
2024-01-12T07:47:43.495Z,19.07
2024-01-12T07:48:44.244Z,19.04
2024-01-12T07:49:45.007Z,19.00
2024-01-12T07:50:45.696Z,19.02
2024-01-12T07:51:46.360Z,18.99
2024-01-12T07:52:46.935Z,19.00
2024-01-12T07:53:47.569Z,19.08
2024-01-12T07:54:48.172Z,19.08
2024-01-12T07:55:48.767Z,18.98
2024-01-12T07:56:49.485Z,18.98
2024-01-12T07:57:50.107Z,18.99
2024-01-12T07:58:50.676Z,18.98
2024-01-12T07:59:51.299Z,18.98
2024-01-12T08:00:51.936Z,19.02
2024-01-12T08:01:52.522Z,18.98
2024-01-12T08:02:53.252Z,19.08
2024-01-12T08:03:54.012Z,19.00
2024-01-12T08:04:54.625Z,19.00
2024-01-12T08:05:55.388Z,18.99
2024-01-12T08:06:56.232Z,19.07
2024-01-12T08:07:56.684Z,18.99
2024-01-12T08:08:57.373Z,18.95
2024-01-12T08:09:57.959Z,18.98
2024-01-12T08:10:58.559Z,18.98
2024-01-12T08:11:59.161Z,18.93
2024-01-12T08:12:59.752Z,18.99
2024-01-12T08:14:00.471Z,18.86
2024-01-12T08:15:01.211Z,18.88
2024-01-12T08:16:01.876Z,18.84
2024-01-12T08:17:02.521Z,18.92
2024-01-12T08:18:03.263Z,18.86
2024-01-12T08:19:04.054Z,18.88
2024-01-12T08:20:04.733Z,18.88
2024-01-12T08:21:05.560Z,18.83
2024-01-12T08:22:06.188Z,18.83
2024-01-12T08:23:06.766Z,18.89
2024-01-12T08:24:07.413Z,18.90
2024-01-12T08:25:08.020Z,18.89
2024-01-12T08:26:08.728Z,18.89
2024-01-12T08:27:09.357Z,18.89
2024-01-12T08:28:09.959Z,18.86
2024-01-12T08:29:10.554Z,18.84
2024-01-12T08:30:11.403Z,18.92
2024-01-12T08:31:12.193Z,18.83
2024-01-12T08:32:12.840Z,18.86
2024-01-12T08:33:13.568Z,18.92
2024-01-12T08:34:14.406Z,18.88
2024-01-12T08:35:15.301Z,18.88
2024-01-12T08:36:15.996Z,18.81
2024-01-12T08:37:16.620Z,18.88
2024-01-12T08:38:17.318Z,18.81
2024-01-12T08:39:17.904Z,18.86
2024-01-12T08:40:18.488Z,18.84
2024-01-12T08:41:19.236Z,18.80
2024-01-12T08:42:20.183Z,18.84
2024-01-12T08:43:20.778Z,18.86
2024-01-12T08:44:21.938Z,18.89
2024-01-12T08:45:22.539Z,18.88
2024-01-12T08:46:23.140Z,18.77
2024-01-12T08:47:23.750Z,18.77
2024-01-12T08:48:24.492Z,18.80
2024-01-12T08:49:25.256Z,18.77
2024-01-12T08:50:25.941Z,18.81
2024-01-12T08:51:26.525Z,18.77
2024-01-12T08:52:27.124Z,18.86
2024-01-12T08:53:27.741Z,18.77
2024-01-12T08:54:28.329Z,18.78
2024-01-12T08:55:28.918Z,18.80
2024-01-12T08:56:29.631Z,18.83
2024-01-12T08:57:30.328Z,18.81
2024-01-12T08:58:30.919Z,18.78
2024-01-12T08:59:31.543Z,18.80
2024-01-12T09:00:32.160Z,18.75
2024-01-12T09:01:32.753Z,18.77
2024-01-12T09:02:33.444Z,18.77
2024-01-12T09:03:34.212Z,18.84
2024-01-12T09:04:35.137Z,18.78
2024-01-12T09:05:35.964Z,18.74
2024-01-12T09:06:36.705Z,18.78
2024-01-12T09:07:37.331Z,18.74
2024-01-12T09:08:37.957Z,18.77
2024-01-12T09:09:38.562Z,18.74
2024-01-12T09:10:39.147Z,18.71
2024-01-12T09:11:39.790Z,18.75
2024-01-12T09:12:40.403Z,18.73
2024-01-12T09:13:40.983Z,18.77
2024-01-12T09:14:41.581Z,18.73
2024-01-12T09:15:42.182Z,18.71
2024-01-12T09:16:42.780Z,18.71
2024-01-12T09:17:43.519Z,18.75
2024-01-12T09:18:44.322Z,18.77
2024-01-12T09:19:45.076Z,18.73
2024-01-12T09:20:45.759Z,18.71
2024-01-12T09:21:46.375Z,18.73
2024-01-12T09:22:47.038Z,18.75
2024-01-12T09:23:47.644Z,18.74
2024-01-12T09:24:48.220Z,18.74
2024-01-12T09:25:49.654Z,18.78
2024-01-12T09:26:50.434Z,18.73
2024-01-12T09:27:51.022Z,18.73
2024-01-12T09:28:51.615Z,18.74
2024-01-12T09:29:52.302Z,18.73
2024-01-12T09:30:53.122Z,18.75
2024-01-12T09:31:53.884Z,18.74
2024-01-12T09:32:54.585Z,18.75
2024-01-12T09:33:55.249Z,18.77
2024-01-12T09:34:56.097Z,18.73
2024-01-12T09:35:56.744Z,18.71
2024-01-12T09:36:57.327Z,18.77
2024-01-12T09:37:57.907Z,18.77
2024-01-12T09:38:58.550Z,18.77
2024-01-12T09:39:59.132Z,18.75
2024-01-12T09:40:59.777Z,18.74
2024-01-12T09:42:00.548Z,18.77
2024-01-12T09:43:01.202Z,18.73
2024-01-12T09:44:01.794Z,18.74
2024-01-12T09:45:07.361Z,18.73
2024-01-12T09:46:03.814Z,18.77
2024-01-12T09:47:04.468Z,18.73
2024-01-12T09:48:05.227Z,18.66
2024-01-12T09:49:05.977Z,18.71
2024-01-12T09:50:06.764Z,18.74
2024-01-12T09:51:07.899Z,18.77
2024-01-12T09:52:08.359Z,18.73
2024-01-12T09:53:08.950Z,18.62
2024-01-12T09:54:09.608Z,18.73
2024-01-12T09:55:10.314Z,18.73
2024-01-12T09:56:10.909Z,18.77
2024-01-12T09:57:11.544Z,18.71
2024-01-12T09:58:12.132Z,18.74
2024-01-12T09:59:12.869Z,18.75
2024-01-12T10:00:13.499Z,18.73
2024-01-12T10:01:14.187Z,18.77
2024-01-12T10:02:14.807Z,18.77
2024-01-12T10:03:15.498Z,18.74
2024-01-12T10:04:16.207Z,18.77
2024-01-12T10:05:16.808Z,18.75
2024-01-12T10:06:17.550Z,18.78
2024-01-12T10:07:18.095Z,18.75
2024-01-12T10:08:18.801Z,18.74
2024-01-12T10:09:19.668Z,18.77
2024-01-12T10:10:20.236Z,18.74
2024-01-12T10:11:20.896Z,18.74
2024-01-12T10:12:21.586Z,18.62
2024-01-12T10:13:22.228Z,18.66
2024-01-12T10:14:22.875Z,18.65
2024-01-12T10:15:23.497Z,18.70
2024-01-12T10:16:24.125Z,18.73
2024-01-12T10:17:24.835Z,18.74
2024-01-12T10:19:40.951Z,18.73
2024-01-12T10:20:41.534Z,18.74
2024-01-12T10:21:42.097Z,18.62
2024-01-12T10:22:42.690Z,18.70
2024-01-12T10:23:43.303Z,18.70
2024-01-12T10:24:43.911Z,18.62
2024-01-12T10:25:44.541Z,18.66
2024-01-12T10:26:45.178Z,18.63
2024-01-12T10:27:45.773Z,18.62
2024-01-12T10:28:46.373Z,18.62
2024-01-12T10:29:46.982Z,18.73
2024-01-12T10:30:47.556Z,18.65
2024-01-12T10:31:48.185Z,18.63
2024-01-12T10:32:48.938Z,18.70
2024-01-12T10:33:49.736Z,18.62
2024-01-12T10:34:50.472Z,18.63
2024-01-12T10:35:51.170Z,18.66
2024-01-12T10:36:51.770Z,18.65
2024-01-12T10:37:52.361Z,18.62
2024-01-12T10:38:52.986Z,18.62
2024-01-12T10:39:53.688Z,18.74
2024-01-12T10:40:54.273Z,18.63
2024-01-12T10:41:54.946Z,18.71
2024-01-12T10:42:55.553Z,18.66
2024-01-12T10:43:56.131Z,18.62
2024-01-12T10:44:56.743Z,18.66
2024-01-12T10:45:57.376Z,18.65
2024-01-12T10:46:57.974Z,18.66
2024-01-12T10:47:58.694Z,18.62
2024-01-12T10:48:59.606Z,18.62
2024-01-12T10:50:00.417Z,18.60
2024-01-12T10:51:01.056Z,18.71
2024-01-12T10:52:01.674Z,18.70
2024-01-12T10:53:02.319Z,18.63
2024-01-12T10:54:03.108Z,18.65
2024-01-12T10:55:03.756Z,18.63
2024-01-12T10:56:04.413Z,18.65
2024-01-12T10:57:05.208Z,18.65
2024-01-12T10:58:05.872Z,18.74
2024-01-12T10:59:06.914Z,18.65
2024-01-12T11:00:07.799Z,18.73
2024-01-12T11:01:08.605Z,18.70
2024-01-12T11:02:09.195Z,18.73
2024-01-12T11:03:10.046Z,18.74
2024-01-12T11:04:10.776Z,18.77
2024-01-12T11:05:11.401Z,18.74
2024-01-12T11:06:12.194Z,18.74
2024-01-12T11:07:13.022Z,18.73
2024-01-12T11:08:13.762Z,18.77
2024-01-12T11:09:14.438Z,18.73
2024-01-12T11:10:15.071Z,18.77
2024-01-12T11:11:15.700Z,18.70
2024-01-12T11:12:16.282Z,18.74
2024-01-12T11:13:16.857Z,18.73
2024-01-12T11:14:17.441Z,18.74
2024-01-12T11:15:18.192Z,18.74
2024-01-12T11:16:18.782Z,18.70
2024-01-12T11:17:19.432Z,18.71
2024-01-12T11:18:20.151Z,18.71
2024-01-12T11:19:20.875Z,18.74
2024-01-12T11:20:21.696Z,18.62
2024-01-12T11:21:22.191Z,18.68
2024-01-12T11:22:22.876Z,18.62
2024-01-12T11:23:23.492Z,18.63
2024-01-12T11:24:24.108Z,18.66
2024-01-12T11:25:24.859Z,18.65
2024-01-12T11:26:25.540Z,18.73
2024-01-12T11:27:26.146Z,18.68
2024-01-12T11:28:26.730Z,18.65
2024-01-12T11:29:27.424Z,18.65
2024-01-12T11:30:28.257Z,18.62
2024-01-12T11:31:29.127Z,18.65
2024-01-12T11:32:30.015Z,18.62
2024-01-12T11:33:30.836Z,18.66
2024-01-12T11:34:31.617Z,18.60
2024-01-12T11:35:32.570Z,18.62
2024-01-12T11:36:33.381Z,18.62
2024-01-12T11:37:33.973Z,18.62
2024-01-12T11:38:34.583Z,18.66
2024-01-12T11:39:35.659Z,18.62
2024-01-12T11:40:37.873Z,18.60
2024-01-12T11:41:37.423Z,18.62
2024-01-12T11:42:38.020Z,18.70
2024-01-12T11:43:38.610Z,18.62
2024-01-12T11:44:39.263Z,18.59
2024-01-12T11:45:39.844Z,18.63
2024-01-12T11:46:40.537Z,18.59
2024-01-12T11:47:41.181Z,18.65
2024-01-12T11:48:41.954Z,18.66
2024-01-12T11:49:42.834Z,18.62
2024-01-12T11:50:43.498Z,18.59
2024-01-12T11:51:45.730Z,18.66
2024-01-12T11:52:44.835Z,18.68
2024-01-12T11:53:45.500Z,18.65
2024-01-12T11:54:46.072Z,18.59
2024-01-12T11:55:46.690Z,18.60
2024-01-12T11:56:47.299Z,18.62
2024-01-12T11:57:47.888Z,18.65
2024-01-12T11:58:48.538Z,18.63
2024-01-12T11:59:49.173Z,18.63
2024-01-12T12:00:49.842Z,18.66
2024-01-12T12:01:50.454Z,18.63
2024-01-12T12:02:55.206Z,18.63
2024-01-12T12:03:52.684Z,18.68
2024-01-12T12:04:53.444Z,18.59
2024-01-12T12:05:54.156Z,18.65
2024-01-12T12:06:55.013Z,18.59
2024-01-12T12:07:55.703Z,18.60
2024-01-12T12:08:56.322Z,18.63
2024-01-12T12:09:57.004Z,18.65
2024-01-12T12:10:57.606Z,18.65
2024-01-12T12:11:58.235Z,18.60
2024-01-12T12:12:58.812Z,18.66
2024-01-12T12:13:59.411Z,18.59
2024-01-12T12:15:00.108Z,18.56
2024-01-12T12:16:00.740Z,18.59
2024-01-12T12:17:01.433Z,18.59
2024-01-12T12:18:02.294Z,18.58
2024-01-12T12:19:03.214Z,18.65
2024-01-12T12:20:03.793Z,18.65
2024-01-12T12:21:04.447Z,18.62
2024-01-12T12:22:05.031Z,18.63
2024-01-12T12:23:05.626Z,18.59
2024-01-12T12:24:06.391Z,18.62
2024-01-12T12:25:06.908Z,18.53
2024-01-12T12:26:07.569Z,18.58
2024-01-12T12:27:08.216Z,18.66
2024-01-12T12:29:24.331Z,18.56
2024-01-12T12:30:25.122Z,18.60
2024-01-12T12:31:25.823Z,18.66
2024-01-12T12:32:26.519Z,18.58
2024-01-12T12:33:27.378Z,18.52
2024-01-12T12:34:28.183Z,18.53
2024-01-12T12:35:28.995Z,18.53
2024-01-12T12:36:29.464Z,18.56
2024-01-12T12:37:30.048Z,18.65
2024-01-12T12:38:30.659Z,18.53
2024-01-12T12:39:31.347Z,18.56
2024-01-12T12:40:31.938Z,18.53
2024-01-12T12:41:32.562Z,18.53
2024-01-12T12:42:33.357Z,18.50
2024-01-12T12:43:33.948Z,18.53
2024-01-12T12:44:34.597Z,18.49
2024-01-12T12:45:35.197Z,18.53
2024-01-12T12:46:35.825Z,18.63
2024-01-12T12:47:36.542Z,18.56
2024-01-12T12:48:37.297Z,18.47
2024-01-12T12:49:38.128Z,18.55
2024-01-12T12:50:38.830Z,18.62
2024-01-12T12:51:39.401Z,18.59
2024-01-12T12:52:39.986Z,18.58
2024-01-12T12:53:41.190Z,18.56
2024-01-12T12:54:42.208Z,18.58
2024-01-12T12:55:42.811Z,18.60
2024-01-12T12:56:43.417Z,18.44
2024-01-12T12:57:44.011Z,18.52
2024-01-12T12:58:44.619Z,18.50
2024-01-12T12:59:45.257Z,18.70
2024-01-12T13:00:45.960Z,18.47
2024-01-12T13:01:46.546Z,18.50
2024-01-12T13:02:47.200Z,18.53
2024-01-12T13:03:47.873Z,18.53